Imperial County Airport
KIPL : now visible

Airfield :











YOU CAN JOIN US ON...

 
LOGIN :

Register | Disclaimer

   EN    FR    IT 

 









Legend :    VFR   Marginal VFR   IFR   Intensive IFR   Very Intensive IFR
Visi :
Ceiling :
>= 8 km
>= 3000ft
5 to 8 km
1000 to 3000 ft
1500m to 5 km
500 to 1000 ft
800 to 1500m
200 to 500 ft
< 800m
< 200 ft
Symbols :   Thunderstorms  Fog  Heavy snow  Heavy precipitations  Wind > 20 kt






- Airport Elevation : -54 ft


KIPL - Imperial County

CURRENT METAR :
  • 081453Z AUTO 32004KT 10SM CLR 14/03 A3001 RMK AO2 SLP162 T01440028

EXPIRED METARs :
  • 081353Z AUTO 29007KT 10SM 13/03 A2999 RMK AO2 SLP157 T01280033 $
  • 081253Z AUTO 29005KT 10SM CLR 14/03 A2998 RMK AO2 SLP153 T01440033 $

TAF KIPL
Valid from the 08 at 12:00 until the 09 at 12:00 UTC


081135Z 0812/0912 28014G22KT P6SM FEW250
FM081500 25010KT P6SM FEW250
FM082200 28014G24KT P6SM SCT250
FM090700 28012KT P6SM BKN200
KZLA FIR / North America



MET'MAP, your aeronautical weather chart ! - Copyright ORBIFLY December 2007 - Disclaimer

ORBIFLY MET'MAP TEAM :

Programming & Development : Alexandra Zaïnal
Concept & original design : Baudouin d'Aumeries
Assistance for programming : Marc-Olivier Méhu
Technical & hardware support : Manuel Goepfert

Contact : metmap@orbifly.com




SOURCES & CREDITS :

   NOAA       Earth
Advisory